createdAt,value
2019-05-16T13:40:54.246Z,7812.00
2019-05-16T13:41:54.210Z,7572.00
2019-05-16T13:42:54.205Z,7108.00
2019-05-16T13:43:54.191Z,7012.00
2019-05-16T13:44:54.251Z,7204.00
2019-05-16T13:45:54.171Z,7504.00
2019-05-16T13:46:54.161Z,8284.00
2019-05-16T13:47:54.178Z,8900.00
2019-05-16T13:48:54.219Z,8780.00
2019-05-16T13:49:54.144Z,8708.00
2019-05-16T13:51:08.409Z,9052.00
2019-05-16T13:51:55.454Z,9280.00
2019-05-16T13:52:58.323Z,9176.00
2019-05-16T13:53:54.289Z,9012.00
2019-05-16T13:54:56.282Z,9160.00
2019-05-16T13:55:54.270Z,9300.00
2019-05-16T13:56:54.097Z,9100.00
2019-05-16T13:57:54.355Z,8732.00
2019-05-16T13:58:56.856Z,8532.00
2019-05-16T13:59:56.630Z,8956.00
2019-05-16T14:00:56.986Z,9864.00
2019-05-16T14:01:54.036Z,10420.00
2019-05-16T14:02:55.230Z,9700.00
2019-05-16T14:03:54.334Z,8728.00
2019-05-16T14:04:54.131Z,8264.00
2019-05-16T14:05:54.160Z,7612.00
2019-05-16T14:06:56.376Z,6944.00
2019-05-16T14:07:53.987Z,6416.00
2019-05-16T14:08:56.614Z,6600.00
2019-05-16T14:09:54.105Z,6756.00
2019-05-16T14:10:54.110Z,6648.00
2019-05-16T14:11:53.890Z,6252.00
2019-05-16T14:12:53.897Z,6028.00
2019-05-16T14:13:56.230Z,6164.00
2019-05-16T14:14:53.862Z,6504.00
2019-05-16T14:15:53.840Z,6976.00
2019-05-16T14:16:53.883Z,7356.00
2019-05-16T14:17:56.658Z,7292.00
2019-05-16T14:18:53.819Z,7056.00
2019-05-16T14:19:53.809Z,7244.00
2019-05-16T14:20:53.803Z,7424.00
2019-05-16T14:21:56.814Z,8076.00
2019-05-16T14:22:53.807Z,8792.00
2019-05-16T14:23:53.896Z,9228.00
2019-05-16T14:24:53.752Z,9704.00
2019-05-16T14:25:53.914Z,10136.00
2019-05-16T14:26:53.731Z,10156.00
2019-05-16T14:27:53.722Z,9632.00
2019-05-16T14:28:53.723Z,9124.00
2019-05-16T14:29:53.700Z,9664.00
2019-05-16T14:30:53.704Z,11028.00
2019-05-16T14:31:53.691Z,12008.00
2019-05-16T14:32:53.746Z,12356.00
2019-05-16T14:33:53.650Z,12288.00
2019-05-16T14:34:53.641Z,11064.00
2019-05-16T14:35:53.630Z,10368.00
2019-05-16T14:36:53.621Z,9612.00
2019-05-16T14:37:57.494Z,9228.00
2019-05-16T14:38:57.333Z,8772.00
2019-05-16T14:39:56.646Z,7784.00
2019-05-16T14:40:57.127Z,6864.00
2019-05-16T14:41:53.570Z,6236.00
2019-05-16T14:42:53.570Z,5824.00
2019-05-16T14:43:53.568Z,5476.00
2019-05-16T14:45:06.583Z,5132.00
2019-05-16T14:45:54.530Z,5104.00
2019-05-16T14:46:53.591Z,5104.00
2019-05-16T14:47:53.530Z,4980.00
2019-05-16T14:48:53.489Z,4752.00
2019-05-16T14:49:53.520Z,4556.00
2019-05-16T14:50:53.470Z,4632.00
2019-05-16T14:51:53.461Z,4580.00
2019-05-16T14:52:53.450Z,4424.00
2019-05-16T14:53:53.440Z,4248.00
2019-05-16T14:54:53.420Z,4228.00
2019-05-16T14:55:53.430Z,4256.00
2019-05-16T14:56:53.428Z,4212.00
2019-05-16T14:57:53.403Z,4212.00
2019-05-16T14:58:53.381Z,3904.00
2019-05-16T14:59:53.399Z,3544.00
2019-05-16T15:00:53.385Z,3340.00
2019-05-16T15:01:53.350Z,3356.00
2019-05-16T15:02:53.341Z,3496.00
2019-05-16T15:03:53.334Z,3800.00
2019-05-16T15:04:53.320Z,4088.00
2019-05-16T15:05:55.380Z,4636.00
2019-05-16T15:06:54.313Z,5056.00
2019-05-16T15:07:53.290Z,4504.00
2019-05-16T15:08:53.281Z,3884.00
2019-05-16T15:09:53.260Z,3352.00
2019-05-16T15:10:53.250Z,3000.00
2019-05-16T15:11:53.252Z,2792.00
2019-05-16T15:12:53.230Z,2640.00
2019-05-16T15:13:53.223Z,2480.00
2019-05-16T15:14:53.211Z,2312.00
2019-05-16T15:15:53.245Z,2292.00
2019-05-16T15:16:53.181Z,2228.00
2019-05-16T15:17:53.187Z,2212.00
2019-05-16T15:18:53.170Z,2280.00
2019-05-16T15:19:53.161Z,2436.00
2019-05-16T15:20:53.141Z,2692.00
2019-05-16T15:21:53.149Z,2920.00
2019-05-16T15:22:53.131Z,3028.00
2019-05-16T15:23:53.110Z,3136.00
2019-05-16T15:24:53.100Z,3280.00
2019-05-16T15:25:53.093Z,3316.00
2019-05-16T15:26:53.089Z,3500.00
2019-05-16T15:27:53.073Z,3672.00
2019-05-16T15:28:53.060Z,3468.00
2019-05-16T15:29:53.063Z,3344.00
2019-05-16T15:30:53.734Z,3468.00
2019-05-16T15:31:53.021Z,3972.00
2019-05-16T15:32:53.021Z,4356.00
2019-05-16T15:33:57.121Z,4360.00
2019-05-16T15:34:53.001Z,4284.00
2019-05-16T15:35:53.003Z,4304.00
2019-05-16T15:36:52.991Z,4356.00
2019-05-16T15:37:52.970Z,4392.00
2019-05-16T15:38:52.950Z,4124.00
2019-05-16T15:39:54.320Z,3952.00
2019-05-16T15:40:52.939Z,3904.00
2019-05-16T15:41:52.920Z,3840.00
2019-05-16T15:42:52.921Z,3768.00
2019-05-16T15:43:52.901Z,3648.00
2019-05-16T15:44:52.890Z,3396.00
2019-05-16T15:45:53.375Z,3432.00
2019-05-16T15:46:52.861Z,3160.00
2019-05-16T15:47:52.865Z,2848.00
2019-05-16T15:48:52.849Z,2824.00
2019-05-16T15:49:52.832Z,2744.00
2019-05-16T15:50:52.820Z,2580.00
2019-05-16T15:51:52.812Z,2212.00
2019-05-16T15:52:52.811Z,2188.00
2019-05-16T15:53:52.790Z,2344.00
2019-05-16T15:54:52.781Z,2240.00
2019-05-16T15:55:52.761Z,2112.00
2019-05-16T15:56:52.759Z,2148.00
2019-05-16T15:57:52.757Z,2264.00
2019-05-16T15:58:52.739Z,2348.00
2019-05-16T15:59:52.721Z,2672.00
2019-05-16T16:00:52.711Z,2888.00
2019-05-16T16:01:52.726Z,3348.00
2019-05-16T16:02:52.691Z,3676.00
2019-05-16T16:03:52.683Z,3656.00
2019-05-16T16:04:52.662Z,3208.00
2019-05-16T16:05:52.663Z,3220.00
2019-05-16T16:06:52.651Z,3192.00
2019-05-16T16:07:52.646Z,3164.00
2019-05-16T16:08:52.632Z,3132.00
2019-05-16T16:09:52.621Z,3140.00
2019-05-16T16:10:52.615Z,3116.00
2019-05-16T16:11:52.600Z,3028.00
2019-05-16T16:12:52.592Z,2696.00
2019-05-16T16:13:52.606Z,2684.00
2019-05-16T16:14:52.581Z,2920.00
2019-05-16T16:15:54.626Z,2756.00
2019-05-16T16:16:52.543Z,2620.00
2019-05-16T16:17:52.531Z,2588.00
2019-05-16T16:18:52.534Z,2840.00
2019-05-16T16:19:52.520Z,2504.00
2019-05-16T16:20:52.505Z,2480.00
2019-05-16T16:21:52.505Z,2344.00
2019-05-16T16:22:52.485Z,2152.00
2019-05-16T16:23:52.471Z,1892.00
2019-05-16T16:24:52.488Z,1732.00
2019-05-16T16:25:52.456Z,1656.00
2019-05-16T16:26:52.444Z,1548.00
2019-05-16T16:27:52.443Z,1568.00
2019-05-16T16:28:52.421Z,1560.00
2019-05-16T16:29:52.411Z,1640.00
2019-05-16T16:30:52.391Z,1568.00
2019-05-16T16:31:52.382Z,1612.00
2019-05-16T16:32:52.370Z,1584.00
2019-05-16T16:33:52.362Z,1556.00
2019-05-16T16:34:52.377Z,1512.00
2019-05-16T16:35:52.332Z,1492.00
2019-05-16T16:36:52.332Z,1360.00
2019-05-16T16:37:52.319Z,1296.00
2019-05-16T16:38:52.302Z,1228.00
2019-05-16T16:39:52.302Z,1072.00
2019-05-16T16:40:52.294Z,968.00
2019-05-16T16:41:52.278Z,924.00
2019-05-16T16:42:52.274Z,920.00
2019-05-16T16:43:52.257Z,952.00
2019-05-16T16:44:52.241Z,1084.00
2019-05-16T16:46:04.441Z,1128.00
2019-05-16T16:46:53.222Z,1248.00
2019-05-16T16:47:52.218Z,1316.00
2019-05-16T16:48:52.192Z,1468.00
2019-05-16T16:49:52.202Z,1436.00
2019-05-16T16:50:52.206Z,1440.00
2019-05-16T16:51:52.170Z,1456.00
2019-05-16T16:52:52.153Z,1344.00
2019-05-16T16:53:52.142Z,1284.00
2019-05-16T16:54:52.145Z,1256.00
2019-05-16T16:55:52.183Z,1180.00
2019-05-16T16:56:52.134Z,1112.00
2019-05-16T16:57:55.740Z,1096.00
2019-05-16T16:58:53.091Z,1068.00
2019-05-16T16:59:52.081Z,1012.00
2019-05-16T17:00:52.071Z,996.00
2019-05-16T17:01:52.085Z,984.00
2019-05-16T17:03:03.293Z,980.00
2019-05-16T17:03:56.878Z,1052.00
2019-05-16T17:04:52.108Z,1004.00
2019-05-16T17:05:52.010Z,1020.00
2019-05-16T17:06:52.033Z,1040.00
2019-05-16T17:07:52.011Z,1024.00
2019-05-16T17:08:51.991Z,1048.00
2019-05-16T17:09:51.984Z,1104.00
2019-05-16T17:10:51.964Z,1296.00
2019-05-16T17:11:51.953Z,1436.00
2019-05-16T17:12:51.951Z,1560.00
2019-05-16T17:13:52.046Z,1544.00
2019-05-16T17:14:51.932Z,1536.00
2019-05-16T17:15:51.944Z,1468.00
2019-05-16T17:16:51.935Z,1552.00
2019-05-16T17:17:52.003Z,1672.00
2019-05-16T17:18:51.872Z,1644.00
2019-05-16T17:19:51.862Z,1684.00
2019-05-16T17:20:51.852Z,1624.00
2019-05-16T17:22:06.314Z,1596.00
2019-05-16T17:22:52.827Z,1612.00
2019-05-16T17:23:51.876Z,1596.00
2019-05-16T17:24:51.819Z,1464.00
2019-05-16T17:25:51.802Z,1408.00
2019-05-16T17:26:51.863Z,1384.00
2019-05-16T17:27:51.805Z,1148.00
2019-05-16T17:28:51.936Z,1052.00
2019-05-16T17:29:51.765Z,1064.00
2019-05-16T17:30:51.812Z,1164.00
2019-05-16T17:31:56.036Z,1152.00
2019-05-16T17:32:52.733Z,1068.00
2019-05-16T17:33:51.846Z,1056.00
2019-05-16T17:34:51.701Z,1192.00
2019-05-16T17:35:51.775Z,1116.00
2019-05-16T17:36:51.671Z,1044.00
2019-05-16T17:37:51.662Z,948.00
2019-05-16T17:38:51.657Z,940.00
2019-05-16T17:39:51.661Z,876.00
2019-05-16T17:40:51.632Z,864.00
2019-05-16T17:41:54.758Z,860.00
2019-05-16T17:42:52.623Z,812.00
2019-05-16T17:43:51.613Z,776.00
2019-05-16T17:44:51.591Z,736.00
2019-05-16T17:45:51.590Z,756.00
2019-05-16T17:46:53.006Z,788.00
2019-05-16T17:47:51.571Z,776.00
2019-05-16T17:48:51.541Z,828.00
2019-05-16T17:49:51.542Z,816.00
2019-05-16T17:50:51.522Z,848.00
2019-05-16T17:51:51.512Z,812.00
2019-05-16T17:52:51.503Z,820.00
2019-05-16T17:53:51.504Z,736.00
2019-05-16T17:54:53.287Z,724.00
2019-05-16T17:55:51.466Z,700.00
2019-05-16T17:56:51.461Z,720.00
2019-05-16T17:57:51.441Z,700.00
2019-05-16T17:58:51.441Z,832.00
2019-05-16T17:59:51.456Z,872.00
2019-05-16T18:00:51.447Z,928.00
2019-05-16T18:01:51.411Z,980.00
2019-05-16T18:02:51.391Z,948.00
2019-05-16T18:03:51.395Z,944.00
2019-05-16T18:04:51.389Z,916.00
2019-05-16T18:05:51.360Z,904.00
2019-05-16T18:06:51.352Z,816.00
2019-05-16T18:07:51.358Z,848.00
2019-05-16T18:08:51.342Z,916.00
2019-05-16T18:09:51.332Z,868.00
2019-05-16T18:10:51.302Z,808.00
2019-05-16T18:11:51.292Z,732.00
2019-05-16T18:12:51.281Z,676.00
2019-05-16T18:13:51.281Z,620.00
2019-05-16T18:14:51.295Z,588.00
2019-05-16T18:15:51.261Z,524.00
2019-05-16T18:16:58.410Z,492.00
2019-05-16T18:17:52.232Z,476.00
2019-05-16T18:18:51.222Z,468.00
2019-05-16T18:19:51.210Z,460.00
2019-05-16T18:20:58.006Z,444.00
2019-05-16T18:21:52.196Z,420.00
2019-05-16T18:22:51.171Z,436.00
2019-05-16T18:23:51.172Z,444.00
2019-05-16T18:24:51.230Z,448.00
2019-05-16T18:25:51.141Z,420.00
2019-05-16T18:26:51.152Z,396.00
2019-05-16T18:27:51.133Z,396.00
2019-05-16T18:28:51.102Z,372.00
2019-05-16T18:29:51.115Z,372.00
2019-05-16T18:30:51.092Z,384.00
2019-05-16T18:31:51.085Z,448.00
2019-05-16T18:32:51.073Z,460.00
2019-05-16T18:33:51.068Z,500.00
2019-05-16T18:34:51.042Z,504.00
2019-05-16T18:35:51.042Z,496.00
2019-05-16T18:36:51.031Z,484.00
2019-05-16T18:37:51.022Z,480.00
2019-05-16T18:38:51.002Z,460.00
2019-05-16T18:39:50.992Z,448.00
2019-05-16T18:40:50.992Z,428.00
2019-05-16T18:41:50.989Z,392.00
2019-05-16T18:42:51.002Z,392.00
2019-05-16T18:43:50.971Z,376.00
2019-05-16T18:44:50.954Z,392.00
2019-05-16T18:45:50.931Z,360.00
2019-05-16T18:47:03.745Z,320.00
2019-05-16T18:47:51.952Z,312.00
2019-05-16T18:48:50.902Z,292.00
2019-05-16T18:49:50.890Z,260.00
2019-05-16T18:50:50.898Z,276.00
2019-05-16T18:51:50.867Z,284.00
2019-05-16T18:52:50.851Z,260.00
2019-05-16T18:53:50.851Z,256.00
2019-05-16T18:54:50.857Z,240.00
2019-05-16T18:55:50.822Z,240.00
2019-05-16T18:56:50.828Z,240.00
2019-05-16T18:57:50.811Z,204.00
2019-05-16T18:58:50.782Z,176.00
2019-05-16T18:59:50.791Z,172.00
2019-05-16T19:00:50.771Z,168.00
2019-05-16T19:01:50.761Z,160.00
2019-05-16T19:02:50.750Z,132.00
2019-05-16T19:03:50.744Z,148.00
2019-05-16T19:04:50.732Z,176.00
2019-05-16T19:05:50.710Z,184.00
2019-05-16T19:06:50.711Z,144.00
2019-05-16T19:07:50.691Z,140.00
2019-05-16T19:08:50.671Z,152.00
2019-05-16T19:09:50.685Z,128.00
2019-05-16T19:10:50.662Z,132.00
2019-05-16T19:11:50.642Z,112.00
2019-05-16T19:12:50.631Z,120.00
2019-05-16T19:13:50.767Z,112.00
2019-05-16T19:14:50.612Z,108.00
2019-05-16T19:15:50.611Z,104.00
2019-05-16T19:16:50.591Z,88.00
2019-05-16T19:17:50.582Z,76.00
2019-05-16T19:18:50.572Z,60.00
2019-05-16T19:19:50.563Z,52.00
2019-05-16T19:20:50.552Z,44.00
2019-05-16T19:21:50.541Z,40.00
2019-05-16T19:22:50.544Z,36.00
2019-05-16T19:23:50.524Z,32.00
2019-05-16T19:24:50.716Z,24.00
2019-05-16T19:25:50.501Z,24.00
2019-05-16T19:26:50.797Z,24.00
2019-05-16T19:27:50.640Z,16.00
2019-05-16T19:28:57.076Z,16.00
2019-05-16T19:29:52.581Z,8.00
2019-05-16T19:30:50.447Z,8.00
2019-05-16T19:31:50.754Z,8.00
2019-05-16T19:32:50.437Z,8.00
2019-05-16T19:33:50.414Z,8.00
2019-05-16T19:34:50.419Z,8.00
2019-05-16T19:35:50.394Z,8.00
2019-05-16T19:36:50.373Z,4.00
2019-05-16T19:37:50.411Z,0.00
2019-05-16T19:38:50.362Z,4.00
2019-05-16T19:39:50.351Z,0.00
2019-05-16T19:40:50.332Z,4.00
2019-05-16T19:41:50.322Z,4.00
2019-05-16T19:42:50.311Z,4.00
2019-05-16T19:43:50.314Z,0.00
2019-05-16T19:44:50.301Z,0.00
2019-05-16T19:45:50.324Z,0.00
2019-05-16T19:46:50.271Z,0.00
2019-05-16T19:47:50.261Z,0.00
2019-05-16T19:48:50.261Z,0.00
2019-05-16T19:49:50.231Z,4.00
2019-05-16T19:50:50.236Z,4.00
2019-05-16T19:51:50.244Z,4.00
2019-05-16T19:52:50.207Z,4.00
2019-05-16T19:53:50.203Z,4.00
2019-05-16T19:54:50.182Z,4.00
2019-05-16T19:55:50.176Z,4.00
2019-05-16T19:56:50.162Z,4.00
2019-05-16T19:57:50.165Z,4.00
2019-05-16T19:58:50.168Z,4.00
2019-05-16T19:59:50.141Z,4.00
2019-05-16T20:00:50.126Z,4.00
2019-05-16T20:01:50.124Z,4.00
2019-05-16T20:02:50.100Z,4.00
2019-05-16T20:03:50.111Z,4.00
2019-05-16T20:04:50.081Z,4.00
2019-05-16T20:05:50.082Z,4.00
2019-05-16T20:06:50.074Z,4.00
2019-05-16T20:07:50.055Z,4.00
2019-05-16T20:08:50.091Z,4.00
2019-05-16T20:09:50.031Z,4.00
2019-05-16T20:10:50.024Z,4.00
2019-05-16T20:11:50.030Z,4.00
2019-05-16T20:12:51.095Z,4.00
2019-05-16T20:13:49.985Z,4.00
2019-05-16T20:14:49.981Z,4.00
2019-05-16T20:15:49.961Z,4.00
2019-05-16T20:16:49.951Z,4.00
2019-05-16T20:17:54.191Z,4.00
2019-05-16T20:18:50.929Z,4.00
2019-05-16T20:19:49.954Z,4.00
2019-05-16T20:20:49.933Z,4.00
2019-05-16T20:21:49.903Z,4.00
2019-05-16T20:22:49.895Z,4.00
2019-05-16T20:23:49.879Z,4.00
2019-05-16T20:24:49.860Z,4.00
2019-05-16T20:25:49.871Z,4.00
2019-05-16T20:26:49.831Z,4.00
2019-05-16T20:27:49.820Z,4.00
2019-05-16T20:28:49.818Z,4.00
2019-05-16T20:29:49.801Z,4.00
2019-05-16T20:30:49.811Z,4.00
2019-05-16T20:31:49.779Z,4.00
2019-05-16T20:32:49.793Z,4.00
2019-05-16T20:33:49.767Z,4.00
2019-05-16T20:34:49.769Z,4.00
2019-05-16T20:35:49.733Z,4.00
2019-05-16T20:36:49.721Z,4.00
2019-05-16T20:37:49.711Z,4.00
2019-05-16T20:38:49.700Z,4.00
2019-05-16T20:39:49.700Z,4.00
2019-05-16T20:40:49.691Z,4.00
2019-05-16T20:41:49.681Z,4.00
2019-05-16T20:42:49.670Z,4.00
2019-05-16T20:43:49.694Z,4.00
2019-05-16T20:44:49.913Z,4.00
2019-05-16T20:45:49.647Z,4.00
2019-05-16T20:46:49.889Z,4.00
2019-05-16T20:47:49.611Z,4.00
2019-05-16T20:48:49.600Z,4.00
2019-05-16T20:49:50.735Z,4.00
2019-05-16T20:50:49.581Z,4.00
2019-05-16T20:51:50.109Z,4.00
2019-05-16T20:52:49.560Z,4.00
2019-05-16T20:53:49.928Z,4.00
2019-05-16T20:54:49.791Z,4.00
2019-05-16T20:55:49.781Z,4.00
2019-05-16T20:56:49.731Z,4.00
2019-05-16T20:57:49.504Z,4.00
2019-05-16T20:58:49.511Z,4.00
2019-05-16T20:59:49.501Z,4.00
2019-05-16T21:00:49.817Z,4.00
2019-05-16T21:01:49.478Z,4.00
2019-05-16T21:02:49.649Z,4.00
2019-05-16T21:03:49.432Z,4.00
2019-05-16T21:04:49.460Z,0.00
2019-05-16T21:05:49.414Z,0.00
2019-05-16T21:07:00.196Z,0.00
2019-05-16T21:07:50.413Z,0.00
2019-05-16T21:08:49.765Z,0.00
2019-05-16T21:09:49.373Z,0.00
2019-05-16T21:10:49.394Z,0.00
2019-05-16T21:11:50.043Z,0.00
2019-05-16T21:12:49.348Z,0.00
2019-05-16T21:13:49.340Z,0.00
2019-05-16T21:14:49.331Z,0.00
2019-05-16T21:15:49.313Z,0.00
2019-05-16T21:16:49.578Z,0.00
2019-05-16T21:17:49.289Z,0.00
2019-05-16T21:18:49.281Z,0.00
2019-05-16T21:19:49.262Z,0.00
2019-05-16T21:20:49.250Z,0.00
2019-05-16T21:21:49.250Z,0.00
2019-05-16T21:22:49.228Z,0.00
2019-05-16T21:23:49.221Z,0.00
2019-05-16T21:24:49.234Z,0.00
2019-05-16T21:25:49.220Z,0.00
2019-05-16T21:26:49.204Z,0.00
2019-05-16T21:27:49.170Z,0.00
2019-05-16T21:28:49.160Z,0.00
2019-05-16T21:29:49.160Z,0.00
2019-05-16T21:30:49.161Z,0.00
2019-05-16T21:31:49.140Z,0.00
2019-05-16T21:32:49.121Z,0.00
2019-05-16T21:33:49.109Z,0.00
2019-05-16T21:34:49.112Z,0.00
2019-05-16T21:35:49.090Z,0.00
2019-05-16T21:36:49.111Z,0.00
2019-05-16T21:37:49.070Z,0.00
2019-05-16T21:38:49.060Z,0.00
2019-05-16T21:39:49.062Z,0.00
2019-05-16T21:40:49.039Z,0.00
2019-05-16T21:41:49.035Z,0.00
2019-05-16T21:42:49.029Z,0.00
2019-05-16T21:43:49.015Z,0.00
2019-05-16T21:44:48.992Z,0.00
2019-05-16T21:45:48.990Z,0.00
2019-05-16T21:46:48.983Z,0.00
2019-05-16T21:47:48.980Z,0.00
2019-05-16T21:48:48.952Z,0.00
2019-05-16T21:49:48.941Z,0.00
2019-05-16T21:50:48.930Z,0.00
2019-05-16T21:51:48.919Z,0.00
2019-05-16T21:52:48.923Z,0.00
2019-05-16T21:53:48.899Z,0.00
2019-05-16T21:54:48.890Z,0.00
2019-05-16T21:55:48.871Z,0.00
2019-05-16T21:56:48.860Z,0.00
2019-05-16T21:57:48.854Z,0.00
2019-05-16T21:58:48.871Z,0.00
2019-05-16T21:59:48.832Z,0.00
2019-05-16T22:00:48.831Z,0.00
2019-05-16T22:01:48.813Z,0.00
2019-05-16T22:02:48.790Z,0.00
2019-05-16T22:03:48.801Z,0.00
2019-05-16T22:04:48.770Z,0.00
2019-05-16T22:05:48.763Z,0.00
2019-05-16T22:06:48.750Z,0.00
2019-05-16T22:07:48.739Z,0.00
2019-05-16T22:08:48.729Z,0.00
2019-05-16T22:09:48.730Z,0.00
2019-05-16T22:10:48.709Z,0.00
2019-05-16T22:11:48.700Z,0.00
2019-05-16T22:12:48.680Z,0.00
2019-05-16T22:13:48.679Z,0.00
2019-05-16T22:14:48.680Z,0.00
2019-05-16T22:15:48.655Z,0.00
2019-05-16T22:16:48.663Z,0.00
2019-05-16T22:17:48.638Z,0.00
2019-05-16T22:18:48.621Z,0.00
2019-05-16T22:19:48.619Z,0.00
2019-05-16T22:20:49.391Z,0.00
2019-05-16T22:21:48.589Z,0.00
2019-05-16T22:22:48.580Z,0.00
2019-05-16T22:23:48.569Z,0.00
2019-05-16T22:24:49.357Z,0.00
2019-05-16T22:25:49.298Z,0.00
2019-05-16T22:26:48.538Z,0.00
2019-05-16T22:27:48.956Z,0.00
2019-05-16T22:28:49.461Z,0.00
2019-05-16T22:29:48.521Z,0.00
2019-05-16T22:30:48.510Z,0.00
2019-05-16T22:31:48.480Z,0.00
2019-05-16T22:32:48.469Z,0.00
2019-05-16T22:33:48.459Z,0.00
2019-05-16T22:34:48.449Z,0.00
2019-05-16T22:35:49.552Z,0.00
2019-05-16T22:36:49.341Z,0.00
2019-05-16T22:37:55.145Z,0.00
2019-05-16T22:38:49.409Z,0.00
2019-05-16T22:39:48.399Z,0.00
2019-05-16T22:40:48.399Z,0.00
2019-05-16T22:41:48.379Z,0.00
2019-05-16T22:42:48.382Z,0.00
2019-05-16T22:43:48.358Z,0.00
2019-05-16T22:44:48.339Z,0.00
2019-05-16T22:45:48.360Z,0.00
2019-05-16T22:46:48.339Z,0.00
2019-05-16T22:47:48.319Z,0.00
2019-05-16T22:48:48.316Z,0.00
2019-05-16T22:49:48.300Z,0.00
2019-05-16T22:50:48.303Z,0.00
2019-05-16T22:51:48.279Z,0.00
2019-05-16T22:52:48.260Z,0.00
2019-05-16T22:53:48.250Z,0.00
2019-05-16T22:54:48.251Z,0.00
2019-05-16T22:55:48.252Z,0.00
2019-05-16T22:56:48.209Z,0.00
2019-05-16T22:57:48.209Z,0.00
2019-05-16T22:58:48.198Z,0.00
2019-05-16T22:59:48.180Z,0.00
2019-05-16T23:00:48.190Z,0.00
2019-05-16T23:01:48.340Z,0.00
2019-05-16T23:02:48.149Z,0.00
2019-05-16T23:03:48.149Z,0.00
2019-05-16T23:04:48.129Z,0.00
2019-05-16T23:05:48.117Z,0.00
2019-05-16T23:06:48.132Z,0.00
2019-05-16T23:08:01.789Z,0.00
2019-05-16T23:08:49.091Z,0.00
2019-05-16T23:09:48.079Z,0.00
2019-05-16T23:10:48.069Z,0.00
2019-05-16T23:11:48.069Z,0.00
2019-05-16T23:12:48.051Z,0.00
2019-05-16T23:13:48.044Z,0.00
2019-05-16T23:14:48.019Z,0.00
2019-05-16T23:15:48.009Z,0.00
2019-05-16T23:16:48.017Z,0.00
2019-05-16T23:17:47.999Z,0.00
2019-05-16T23:18:47.979Z,0.00
2019-05-16T23:19:47.959Z,0.00
2019-05-16T23:20:47.962Z,0.00
2019-05-16T23:21:47.969Z,0.00
2019-05-16T23:22:47.938Z,0.00
2019-05-16T23:23:47.929Z,0.00
2019-05-16T23:24:47.929Z,0.00
2019-05-16T23:25:47.909Z,0.00
2019-05-16T23:26:47.900Z,0.00
2019-05-16T23:27:47.910Z,0.00
2019-05-16T23:28:47.879Z,0.00
2019-05-16T23:29:47.858Z,0.00
2019-05-16T23:30:47.859Z,0.00
2019-05-16T23:31:50.689Z,0.00
2019-05-16T23:32:47.840Z,0.00
2019-05-16T23:33:47.823Z,0.00
2019-05-16T23:34:47.838Z,0.00
2019-05-16T23:35:47.807Z,0.00
2019-05-16T23:36:47.780Z,0.00
2019-05-16T23:37:47.778Z,0.00
2019-05-16T23:38:47.759Z,0.00
2019-05-16T23:39:47.759Z,0.00
2019-05-16T23:40:47.768Z,0.00
2019-05-16T23:41:47.729Z,0.00
2019-05-16T23:42:47.736Z,0.00
2019-05-16T23:43:47.708Z,0.00
2019-05-16T23:44:47.713Z,0.00
2019-05-16T23:45:47.692Z,0.00
2019-05-16T23:46:47.679Z,0.00
2019-05-16T23:47:47.708Z,0.00
2019-05-16T23:48:47.648Z,0.00
2019-05-16T23:49:47.649Z,0.00
2019-05-16T23:50:47.650Z,0.00
2019-05-16T23:51:47.620Z,0.00
2019-05-16T23:52:47.629Z,0.00
2019-05-16T23:53:47.599Z,0.00
2019-05-16T23:54:47.647Z,0.00
2019-05-16T23:55:47.598Z,0.00
2019-05-16T23:56:47.581Z,0.00
2019-05-16T23:57:47.568Z,0.00
2019-05-16T23:58:47.857Z,0.00
2019-05-16T23:59:47.538Z,0.00
